Time;durP1;ratioP1;P1;durP2;ratioP2;P2;SDS_P1;SDS_P2;PMS_P1;PMS_P2;Temp;Humidity;BMP_temperature;BMP_pressure;BME280_temperature;BME280_humidity;BME280_pressure;Samples;Min_cycle;Max_cycle;Signal;HPM_P1;HPM_P2
2022/11/05 00:09:31;;;;;;;14.50;7.70;;;;;;;;;;5025692;28;20215;-69
2022/11/05 00:17:30;;;;;;;11.63;8.17;;;;;;;;;;5025693;28;20533;-69
2022/11/05 00:19:57;;;;;;;14.43;7.87;;;;;;;;;;5011641;28;20254;-69
2022/11/05 00:25:17;;;;;;;11.47;7.83;;;;;;;;;;5025421;28;20200;-69
2022/11/05 00:27:44;;;;;;;11.23;7.60;;;;;;;;;;5012620;28;20596;-70
2022/11/05 00:30:12;;;;;;;10.73;7.70;;;;;;;;;;5012370;28;20191;-69
2022/11/05 00:32:39;;;;;;;12.40;8.03;;;;;;;;;;5012572;28;20608;-69
2022/11/05 00:35:06;;;;;;;11.00;7.70;;;;;;;;;;5011303;28;20390;-69
2022/11/05 00:37:51;;;;;;;13.87;8.17;;;;;;;;;;5024983;28;20203;-69
2022/11/05 00:40:18;;;;;;;11.80;8.30;;;;;;;;;;5027206;28;20332;-69
2022/11/05 00:45:30;;;;;;;12.90;8.37;;;;;;;;;;5012100;28;20598;-69
2022/11/05 00:50:42;;;;;;;12.37;8.27;;;;;;;;;;5028443;28;20564;-69
2022/11/05 00:53:11;;;;;;;11.30;7.90;;;;;;;;;;5031906;28;20223;-69
2022/11/05 00:55:39;;;;;;;13.27;8.47;;;;;;;;;;5030564;28;20203;-69
2022/11/05 00:58:08;;;;;;;14.70;8.93;;;;;;;;;;5029791;28;20195;-69
2022/11/05 01:00:35;;;;;;;14.83;9.40;;;;;;;;;;5031319;28;20614;-69
2022/11/05 01:03:03;;;;;;;13.97;8.93;;;;;;;;;;5030492;28;20203;-69
2022/11/05 01:05:30;;;;;;;15.13;8.60;;;;;;;;;;5031919;28;20183;-70
2022/11/05 01:07:57;;;;;;;13.87;9.40;;;;;;;;;;5030325;28;20191;-69
2022/11/05 01:10:23;;;;;;;12.57;8.57;;;;;;;;;;5031460;28;20243;-69
2022/11/05 01:12:50;;;;;;;12.90;8.73;;;;;;;;;;5030247;28;20176;-70
2022/11/05 01:15:17;;;;;;;13.47;9.13;;;;;;;;;;5031255;28;20239;-70
2022/11/05 01:17:44;;;;;;;12.47;9.13;;;;;;;;;;5045093;28;20195;-70
2022/11/05 01:20:10;;;;;;;12.90;9.20;;;;;;;;;;5020353;28;20223;-70
2022/11/05 01:22:37;;;;;;;12.47;9.67;;;;;;;;;;4994013;28;20576;-70
2022/11/05 01:25:06;;;;;;;12.47;9.60;;;;;;;;;;5011733;28;20244;-70
2022/11/05 01:27:32;;;;;;;13.63;9.53;;;;;;;;;;5026204;28;20220;-70
2022/11/05 01:30:00;;;;;;;13.40;9.37;;;;;;;;;;5009987;28;20223;-70
2022/11/05 01:32:26;;;;;;;14.00;9.73;;;;;;;;;;5011373;28;20188;-70
2022/11/05 01:34:53;;;;;;;14.90;9.50;;;;;;;;;;5029410;28;20180;-70
2022/11/05 01:37:20;;;;;;;13.53;9.33;;;;;;;;;;5030628;28;20196;-70
2022/11/05 01:39:46;;;;;;;12.30;9.70;;;;;;;;;;5030992;28;20662;-70
2022/11/05 01:42:13;;;;;;;14.20;10.03;;;;;;;;;;5030943;28;20184;-70
2022/11/05 01:44:59;;;;;;;12.83;9.70;;;;;;;;;;5030970;28;20255;-70
2022/11/05 01:47:26;;;;;;;13.77;9.90;;;;;;;;;;5030901;28;20187;-70
2022/11/05 01:49:52;;;;;;;14.27;8.93;;;;;;;;;;5019336;28;20220;-70
2022/11/05 01:52:19;;;;;;;12.57;9.60;;;;;;;;;;5008577;28;20254;-71
2022/11/05 01:54:46;;;;;;;11.97;9.03;;;;;;;;;;5026067;28;20981;-70
2022/11/05 01:57:13;;;;;;;12.17;8.67;;;;;;;;;;5025959;28;20671;-70
2022/11/05 01:59:41;;;;;;;11.03;8.37;;;;;;;;;;5025997;28;20220;-70
2022/11/05 02:02:08;;;;;;;10.37;8.07;;;;;;;;;;5010713;28;20206;-70
2022/11/05 02:04:36;;;;;;;10.40;8.30;;;;;;;;;;5025706;28;20208;-70
2022/11/05 02:07:03;;;;;;;11.83;8.13;;;;;;;;;;5010592;28;20189;-70
2022/11/05 02:09:50;;;;;;;10.50;7.93;;;;;;;;;;5028536;28;20641;-70
2022/11/05 02:12:35;;;;;;;12.43;8.40;;;;;;;;;;5028172;28;20233;-70
2022/11/05 02:15:01;;;;;;;10.20;7.87;;;;;;;;;;5029089;28;20218;-70
2022/11/05 02:18:04;;;;;;;12.00;7.63;;;;;;;;;;5030069;28;20186;-71
2022/11/05 02:20:34;;;;;;;8.30;7.00;;;;;;;;;;5030439;28;20266;-70
2022/11/05 02:23:19;;;;;;;8.97;7.13;;;;;;;;;;5029766;28;20180;-70
2022/11/05 02:26:09;;;;;;;8.63;6.60;;;;;;;;;;5020722;28;20196;-70
2022/11/05 02:28:54;;;;;;;8.23;6.37;;;;;;;;;;5008256;28;20220;-70
2022/11/05 02:31:23;;;;;;;7.63;6.47;;;;;;;;;;5010051;28;20195;-70
2022/11/05 02:34:06;;;;;;;6.97;5.97;;;;;;;;;;5010188;28;20307;-70
2022/11/05 02:36:44;;;;;;;6.80;5.40;;;;;;;;;;5010243;28;20659;-70
2022/11/05 02:39:29;;;;;;;6.90;5.80;;;;;;;;;;5009850;28;20192;-70
2022/11/05 02:42:14;;;;;;;6.27;5.43;;;;;;;;;;5010236;28;20663;-70
2022/11/05 02:44:53;;;;;;;6.77;5.63;;;;;;;;;;5029062;28;20218;-70
2022/11/05 02:47:30;;;;;;;5.90;5.20;;;;;;;;;;5029915;28;20195;-70
2022/11/05 02:50:01;;;;;;;6.03;5.00;;;;;;;;;;5016624;28;20235;-70
2022/11/05 02:52:51;;;;;;;7.50;5.47;;;;;;;;;;4992252;28;20192;-70
2022/11/05 02:55:32;;;;;;;5.40;4.60;;;;;;;;;;5006914;28;20207;-70
2022/11/05 02:58:00;;;;;;;7.17;5.27;;;;;;;;;;5008481;28;20188;-70
2022/11/05 03:00:33;;;;;;;6.47;4.93;;;;;;;;;;5007919;28;20644;-70
2022/11/05 03:03:00;;;;;;;6.07;5.23;;;;;;;;;;5008501;28;20698;-70
2022/11/05 03:05:29;;;;;;;6.13;5.43;;;;;;;;;;5024988;28;20216;-70
2022/11/05 03:07:57;;;;;;;6.40;5.03;;;;;;;;;;5008170;28;20196;-70
2022/11/05 03:10:24;;;;;;;6.07;4.97;;;;;;;;;;5024714;28;20200;-70
2022/11/05 03:12:55;;;;;;;6.13;4.80;;;;;;;;;;5009691;28;20655;-70
2022/11/05 03:15:29;;;;;;;5.77;4.97;;;;;;;;;;5041075;28;20245;-70
2022/11/05 03:18:02;;;;;;;5.43;4.80;;;;;;;;;;5029414;28;20198;-70
2022/11/05 03:20:47;;;;;;;6.50;5.27;;;;;;;;;;5029449;28;20199;-70
2022/11/05 03:23:18;;;;;;;6.37;5.40;;;;;;;;;;5027532;28;20191;-70
2022/11/05 03:25:46;;;;;;;7.00;5.57;;;;;;;;;;5020089;28;20188;-70
2022/11/05 03:28:13;;;;;;;8.60;5.93;;;;;;;;;;5008160;28;20219;-70
2022/11/05 03:30:39;;;;;;;7.40;6.33;;;;;;;;;;5008167;28;20213;-70
2022/11/05 03:33:07;;;;;;;8.40;6.67;;;;;;;;;;5028701;28;20259;-70
2022/11/05 03:35:38;;;;;;;7.87;6.10;;;;;;;;;;5028370;28;20184;-70
2022/11/05 03:38:06;;;;;;;7.53;6.20;;;;;;;;;;5011417;28;20206;-70
2022/11/05 03:40:33;;;;;;;6.97;6.07;;;;;;;;;;5027906;28;20278;-70
2022/11/05 03:42:59;;;;;;;7.47;6.03;;;;;;;;;;5027790;28;20195;-70
2022/11/05 03:45:35;;;;;;;8.87;6.13;;;;;;;;;;5013851;28;20382;-70
2022/11/05 03:48:02;;;;;;;7.57;6.13;;;;;;;;;;5008096;28;20176;-70
2022/11/05 03:50:33;;;;;;;7.60;5.63;;;;;;;;;;5008045;28;20311;-70
2022/11/05 03:53:14;;;;;;;6.50;5.70;;;;;;;;;;5007905;28;20643;-70
2022/11/05 03:55:44;;;;;;;7.83;6.80;;;;;;;;;;5007907;28;20196;-70
2022/11/05 03:58:11;;;;;;;7.33;6.40;;;;;;;;;;5009097;28;20188;-70
2022/11/05 04:00:38;;;;;;;7.20;6.03;;;;;;;;;;5007356;28;20219;-70
2022/11/05 04:03:05;;;;;;;7.83;6.33;;;;;;;;;;5024292;28;20188;-70
2022/11/05 04:05:32;;;;;;;9.23;6.17;;;;;;;;;;5024533;28;20695;-70
2022/11/05 04:13:29;;;;;;;6.30;4.90;;;;;;;;;;5009102;28;20562;-70
2022/11/05 04:18:41;;;;;;;6.37;5.40;;;;;;;;;;5021339;28;20187;-70
2022/11/05 04:24:08;;;;;;;6.43;5.13;;;;;;;;;;5028466;28;20195;-70
2022/11/05 04:26:38;;;;;;;7.77;5.17;;;;;;;;;;5029003;28;20199;-70
2022/11/05 04:31:50;;;;;;;6.47;5.20;;;;;;;;;;5028709;28;20241;-70
2022/11/05 04:34:17;;;;;;;5.97;5.37;;;;;;;;;;5016390;28;20220;-70
2022/11/05 04:36:44;;;;;;;6.77;5.63;;;;;;;;;;5027608;28;20188;-70
2022/11/05 04:39:11;;;;;;;6.73;5.57;;;;;;;;;;5026731;28;20200;-70
2022/11/05 04:41:38;;;;;;;8.20;6.00;;;;;;;;;;5012746;28;20216;-70
2022/11/05 04:44:04;;;;;;;6.60;5.90;;;;;;;;;;5012040;28;20228;-70
2022/11/05 04:46:31;;;;;;;7.30;5.50;;;;;;;;;;5012342;28;20215;-70
2022/11/05 04:48:57;;;;;;;9.17;6.50;;;;;;;;;;5010902;28;20593;-70
2022/11/05 04:51:26;;;;;;;7.40;6.27;;;;;;;;;;5011514;28;20231;-70
2022/11/05 04:53:52;;;;;;;7.57;6.33;;;;;;;;;;5011962;28;20702;-70
2022/11/05 04:56:20;;;;;;;8.93;7.00;;;;;;;;;;5027294;28;20278;-70
2022/11/05 04:58:46;;;;;;;7.90;6.77;;;;;;;;;;5011913;28;20275;-70
2022/11/05 05:01:17;;;;;;;7.50;6.50;;;;;;;;;;5027128;28;20237;-70
2022/11/05 05:03:47;;;;;;;8.67;6.93;;;;;;;;;;5011957;28;20189;-70
2022/11/05 05:06:14;;;;;;;8.33;6.87;;;;;;;;;;5012685;28;20187;-70
2022/11/05 05:08:40;;;;;;;8.70;6.73;;;;;;;;;;5026032;28;20267;-70
2022/11/05 05:11:08;;;;;;;8.37;6.80;;;;;;;;;;5027997;28;20203;-71
2022/11/05 05:13:34;;;;;;;8.60;7.00;;;;;;;;;;5041608;28;20188;-71
2022/11/05 05:16:08;;;;;;;8.70;7.03;;;;;;;;;;5010309;28;20198;-70
2022/11/05 05:18:34;;;;;;;8.63;6.73;;;;;;;;;;5003707;28;20219;-70
2022/11/05 05:23:47;;;;;;;8.67;7.17;;;;;;;;;;5010997;28;20196;-70
2022/11/05 05:26:16;;;;;;;9.47;7.60;;;;;;;;;;5013318;28;20200;-70
2022/11/05 05:28:43;;;;;;;9.43;7.03;;;;;;;;;;5018651;28;20196;-70
2022/11/05 05:31:09;;;;;;;9.53;7.53;;;;;;;;;;5015346;28;20235;-71
2022/11/05 05:33:36;;;;;;;9.73;7.07;;;;;;;;;;5024444;28;20199;-70
2022/11/05 05:36:03;;;;;;;9.30;7.33;;;;;;;;;;5016272;28;20222;-70
2022/11/05 05:38:36;;;;;;;9.50;7.73;;;;;;;;;;5020402;28;20196;-70
2022/11/05 05:41:03;;;;;;;10.17;7.70;;;;;;;;;;5020894;28;20254;-70
2022/11/05 05:43:30;;;;;;;9.03;7.20;;;;;;;;;;5013577;28;20188;-70
2022/11/05 05:46:00;;;;;;;9.73;7.33;;;;;;;;;;5025245;28;20282;-70
2022/11/05 05:48:27;;;;;;;8.57;6.70;;;;;;;;;;5029787;28;20202;-70
2022/11/05 05:50:58;;;;;;;9.37;7.57;;;;;;;;;;5028413;28;20273;-70
2022/11/05 05:53:24;;;;;;;9.00;7.23;;;;;;;;;;5012935;28;20556;-70
2022/11/05 05:55:52;;;;;;;10.77;8.13;;;;;;;;;;5022398;28;20698;-71
2022/11/05 05:58:21;;;;;;;11.13;8.63;;;;;;;;;;5010450;28;20223;-70
2022/11/05 06:00:48;;;;;;;10.67;8.10;;;;;;;;;;5010274;28;20193;-71
2022/11/05 06:03:15;;;;;;;11.27;8.33;;;;;;;;;;5015013;28;21580;-70
2022/11/05 06:05:41;;;;;;;12.93;9.07;;;;;;;;;;5010051;28;20214;-70
2022/11/05 06:08:08;;;;;;;11.20;8.23;;;;;;;;;;5018504;28;20187;-70
2022/11/05 06:10:35;;;;;;;11.00;8.27;;;;;;;;;;5016486;28;20199;-70
2022/11/05 06:13:02;;;;;;;12.10;8.40;;;;;;;;;;5020175;28;20192;-71
2022/11/05 06:15:28;;;;;;;10.13;8.20;;;;;;;;;;5009404;28;20647;-70
2022/11/05 06:18:01;;;;;;;9.63;7.47;;;;;;;;;;5028265;28;20662;-70
2022/11/05 06:20:28;;;;;;;8.83;7.07;;;;;;;;;;5026863;28;20192;-70
2022/11/05 06:22:57;;;;;;;9.33;7.17;;;;;;;;;;5023020;28;20204;-70
2022/11/05 06:25:24;;;;;;;7.70;6.03;;;;;;;;;;5010422;28;20303;-70
2022/11/05 06:27:51;;;;;;;8.97;7.50;;;;;;;;;;5025039;28;20626;-71
2022/11/05 06:30:17;;;;;;;8.30;6.63;;;;;;;;;;5023769;28;20227;-70
2022/11/05 06:32:44;;;;;;;8.10;6.73;;;;;;;;;;5010534;28;20676;-72
2022/11/05 06:35:28;;;;;;;8.13;6.90;;;;;;;;;;5009421;28;20176;-71
2022/11/05 06:38:01;;;;;;;8.17;6.67;;;;;;;;;;5011611;28;20268;-75
2022/11/05 06:40:28;;;;;;;7.90;6.60;;;;;;;;;;5025395;28;20270;-75
2022/11/05 06:42:55;;;;;;;7.93;6.83;;;;;;;;;;5031405;28;20214;-75
2022/11/05 06:45:21;;;;;;;8.10;6.63;;;;;;;;;;5026679;28;20303;-75
2022/11/05 06:48:05;;;;;;;7.33;6.27;;;;;;;;;;5032586;28;20245;-75
2022/11/05 06:50:32;;;;;;;7.80;6.53;;;;;;;;;;5030619;28;20636;-74
2022/11/05 06:52:59;;;;;;;8.10;6.77;;;;;;;;;;5029010;28;20207;-73
2022/11/05 06:55:27;;;;;;;8.70;6.50;;;;;;;;;;5027583;28;20218;-73
2022/11/05 06:57:54;;;;;;;7.73;6.40;;;;;;;;;;5028996;28;20291;-72
2022/11/05 07:00:21;;;;;;;8.70;7.00;;;;;;;;;;5026176;28;20650;-73
2022/11/05 07:02:48;;;;;;;9.20;7.30;;;;;;;;;;5026384;28;20195;-72
2022/11/05 07:05:15;;;;;;;10.30;7.20;;;;;;;;;;5026986;28;20691;-74
2022/11/05 07:07:42;;;;;;;10.10;7.83;;;;;;;;;;5028118;28;20196;-74
2022/11/05 07:10:13;;;;;;;9.20;7.17;;;;;;;;;;5027964;28;20258;-72
2022/11/05 07:12:39;;;;;;;9.80;7.57;;;;;;;;;;5024420;28;20202;-71
2022/11/05 07:15:06;;;;;;;9.87;8.30;;;;;;;;;;5027147;28;20222;-72
2022/11/05 07:17:33;;;;;;;9.73;7.73;;;;;;;;;;5029844;28;20230;-72
2022/11/05 07:20:00;;;;;;;11.27;8.53;;;;;;;;;;5032378;28;20190;-73
2022/11/05 07:22:26;;;;;;;11.97;9.13;;;;;;;;;;5025093;28;20195;-71
2022/11/05 07:24:53;;;;;;;10.63;9.00;;;;;;;;;;5029759;28;20223;-71
2022/11/05 07:27:20;;;;;;;11.10;9.03;;;;;;;;;;5030094;28;20285;-72
2022/11/05 07:29:47;;;;;;;12.77;9.53;;;;;;;;;;5025657;28;20200;-75
2022/11/05 07:32:13;;;;;;;13.27;10.13;;;;;;;;;;5035132;28;20202;-71
2022/11/05 07:34:40;;;;;;;12.53;10.10;;;;;;;;;;5026043;28;20279;-70
2022/11/05 07:37:07;;;;;;;11.73;9.50;;;;;;;;;;5025040;28;20198;-72
2022/11/05 07:39:34;;;;;;;10.67;9.20;;;;;;;;;;5017836;28;20278;-72
2022/11/05 07:42:00;;;;;;;11.90;9.13;;;;;;;;;;5025318;28;20192;-72
2022/11/05 07:44:31;;;;;;;11.33;8.70;;;;;;;;;;5030485;28;20627;-73
2022/11/05 07:46:58;;;;;;;10.63;8.13;;;;;;;;;;5028267;28;20206;-72
2022/11/05 07:49:25;;;;;;;11.80;8.63;;;;;;;;;;5028434;28;20276;-72
2022/11/05 07:51:52;;;;;;;10.07;8.57;;;;;;;;;;5029622;28;20206;-73
2022/11/05 07:54:19;;;;;;;10.27;8.80;;;;;;;;;;5026891;28;20222;-74
2022/11/05 07:56:47;;;;;;;13.63;9.50;;;;;;;;;;5023658;28;20210;-74
2022/11/05 07:59:13;;;;;;;10.83;8.73;;;;;;;;;;5029797;28;20215;-72
2022/11/05 08:01:40;;;;;;;13.40;10.27;;;;;;;;;;5029705;28;20574;-74
2022/11/05 08:04:07;;;;;;;13.10;10.00;;;;;;;;;;5031499;28;20203;-76
2022/11/05 08:06:34;;;;;;;12.30;9.57;;;;;;;;;;5035007;28;20913;-74
2022/11/05 08:09:01;;;;;;;11.23;9.37;;;;;;;;;;5026122;28;20773;-73
2022/11/05 08:11:27;;;;;;;14.07;10.60;;;;;;;;;;5030997;28;20179;-73
2022/11/05 08:13:54;;;;;;;15.07;11.60;;;;;;;;;;5032602;28;20232;-71
2022/11/05 08:16:21;;;;;;;15.83;11.17;;;;;;;;;;5032891;28;20249;-72
2022/11/05 08:18:48;;;;;;;19.80;13.13;;;;;;;;;;5032305;28;20226;-71
2022/11/05 08:21:17;;;;;;;19.30;13.47;;;;;;;;;;5029394;28;20198;-72
2022/11/05 08:23:44;;;;;;;21.27;14.80;;;;;;;;;;5030696;28;20218;-74
2022/11/05 08:26:10;;;;;;;20.53;14.33;;;;;;;;;;5030797;28;20307;-73
2022/11/05 08:28:37;;;;;;;21.77;13.60;;;;;;;;;;5032088;28;20269;-73
2022/11/05 08:31:03;;;;;;;21.83;13.33;;;;;;;;;;5033681;28;20845;-72
2022/11/05 08:33:30;;;;;;;21.37;12.90;;;;;;;;;;5024160;28;20277;-73
2022/11/05 08:36:00;;;;;;;24.03;13.50;;;;;;;;;;5026366;28;20222;-73
2022/11/05 08:38:27;;;;;;;24.00;13.63;;;;;;;;;;5027811;28;20282;-73
2022/11/05 08:40:55;;;;;;;24.10;13.53;;;;;;;;;;5026243;28;20228;-72
2022/11/05 08:43:22;;;;;;;23.07;14.20;;;;;;;;;;5035526;28;20298;-73
2022/11/05 08:45:48;;;;;;;25.03;13.80;;;;;;;;;;5035436;28;20214;-72
2022/11/05 08:48:16;;;;;;;24.40;14.00;;;;;;;;;;5030918;28;20187;-72
2022/11/05 08:50:43;;;;;;;27.90;14.17;;;;;;;;;;5036071;28;20218;-72
2022/11/05 08:53:10;;;;;;;23.90;15.27;;;;;;;;;;5026643;28;20220;-73
2022/11/05 08:55:37;;;;;;;29.87;14.93;;;;;;;;;;5033970;28;20188;-72
2022/11/05 08:58:06;;;;;;;26.63;15.37;;;;;;;;;;5034766;28;20206;-74
2022/11/05 09:00:33;;;;;;;24.13;14.43;;;;;;;;;;5031217;28;20195;-72
2022/11/05 09:03:00;;;;;;;21.50;13.87;;;;;;;;;;5031618;28;20223;-71
2022/11/05 09:05:27;;;;;;;22.67;13.10;;;;;;;;;;5025323;28;21102;-72
2022/11/05 09:07:55;;;;;;;20.60;12.77;;;;;;;;;;5029038;28;20199;-72
2022/11/05 09:10:27;;;;;;;18.77;11.57;;;;;;;;;;5021536;28;20206;-71
2022/11/05 09:12:54;;;;;;;20.43;12.60;;;;;;;;;;5027600;28;20199;-72
2022/11/05 09:15:22;;;;;;;17.43;11.27;;;;;;;;;;5032138;28;20601;-74
2022/11/05 09:17:49;;;;;;;18.03;10.83;;;;;;;;;;5024612;28;20240;-73
2022/11/05 09:20:15;;;;;;;17.00;11.43;;;;;;;;;;5025863;28;20208;-72
2022/11/05 09:22:43;;;;;;;15.77;9.77;;;;;;;;;;5025594;28;20194;-72
2022/11/05 09:25:09;;;;;;;15.67;10.17;;;;;;;;;;5030161;28;20231;-72
2022/11/05 09:27:36;;;;;;;16.40;10.30;;;;;;;;;;5025941;28;20606;-70
2022/11/05 09:30:03;;;;;;;14.70;10.93;;;;;;;;;;5029818;28;20195;-70
2022/11/05 09:32:30;;;;;;;14.10;10.13;;;;;;;;;;5031625;28;20192;-73
2022/11/05 09:34:59;;;;;;;12.23;8.93;;;;;;;;;;5029383;28;20210;-72
2022/11/05 09:37:26;;;;;;;11.33;7.70;;;;;;;;;;5033716;28;20269;-73
2022/11/05 09:39:53;;;;;;;12.37;9.97;;;;;;;;;;5030276;28;20721;-73
2022/11/05 09:42:21;;;;;;;9.13;6.77;;;;;;;;;;5022274;28;20235;-73
2022/11/05 09:44:50;;;;;;;7.87;5.67;;;;;;;;;;5014913;28;20207;-73
2022/11/05 09:47:18;;;;;;;7.67;4.97;;;;;;;;;;5029306;28;20242;-73
2022/11/05 09:49:47;;;;;;;6.87;4.20;;;;;;;;;;5028923;28;20311;-73
2022/11/05 09:52:16;;;;;;;6.77;4.60;;;;;;;;;;5038496;28;20217;-73
2022/11/05 09:54:43;;;;;;;7.13;3.87;;;;;;;;;;5028608;28;20235;-73
2022/11/05 09:57:14;;;;;;;5.77;3.60;;;;;;;;;;5030826;28;20807;-72
2022/11/05 09:59:46;;;;;;;5.57;3.90;;;;;;;;;;5031535;28;20228;-73
2022/11/05 10:02:12;;;;;;;6.40;3.40;;;;;;;;;;5028537;28;20195;-73
2022/11/05 10:04:39;;;;;;;6.53;3.40;;;;;;;;;;5029384;28;20291;-72
2022/11/05 10:07:06;;;;;;;5.80;3.77;;;;;;;;;;5029225;28;20287;-72
2022/11/05 10:09:36;;;;;;;4.83;3.10;;;;;;;;;;5034000;28;20568;-74
2022/11/05 10:12:07;;;;;;;20.60;10.50;;;;;;;;;;5027929;28;20196;-74
2022/11/05 10:14:45;;;;;;;7.80;3.83;;;;;;;;;;5011842;28;20195;-74
2022/11/05 10:17:16;;;;;;;7.03;3.20;;;;;;;;;;5012064;28;20285;-74
2022/11/05 10:19:52;;;;;;;4.97;3.03;;;;;;;;;;5014938;28;20661;-74
2022/11/05 10:22:19;;;;;;;4.73;3.00;;;;;;;;;;5015100;28;20188;-74
2022/11/05 10:24:46;;;;;;;5.13;2.70;;;;;;;;;;5021581;28;20188;-74
2022/11/05 10:27:23;;;;;;;4.77;2.60;;;;;;;;;;5039673;28;20224;-74
2022/11/05 10:29:50;;;;;;;5.50;2.93;;;;;;;;;;5025049;28;20218;-74
2022/11/05 10:32:26;;;;;;;6.17;2.40;;;;;;;;;;5030677;28;20237;-74
2022/11/05 10:34:53;;;;;;;7.50;2.60;;;;;;;;;;5029042;28;20191;-74
2022/11/05 10:37:19;;;;;;;5.07;2.17;;;;;;;;;;5008016;28;20249;-74
2022/11/05 10:39:46;;;;;;;4.07;1.87;;;;;;;;;;5012094;28;20200;-75
2022/11/05 10:42:20;;;;;;;4.97;2.60;;;;;;;;;;5013670;28;20655;-74
2022/11/05 10:44:53;;;;;;;5.27;2.40;;;;;;;;;;5010294;28;20212;-74
2022/11/05 10:47:20;;;;;;;5.50;2.00;;;;;;;;;;5017256;28;20694;-73
2022/11/05 10:49:57;;;;;;;4.60;2.17;;;;;;;;;;5028490;28;20223;-72
2022/11/05 10:52:32;;;;;;;3.60;1.90;;;;;;;;;;5027967;28;20220;-72
2022/11/05 10:54:59;;;;;;;4.43;1.80;;;;;;;;;;5010982;28;20574;-72
2022/11/05 10:57:36;;;;;;;5.00;1.60;;;;;;;;;;5022419;28;20219;-69
2022/11/05 11:00:17;;;;;;;4.53;1.90;;;;;;;;;;5008323;28;20211;-71
2022/11/05 11:02:48;;;;;;;5.07;1.70;;;;;;;;;;5009076;28;20275;-71
2022/11/05 11:05:19;;;;;;;6.40;2.90;;;;;;;;;;5010391;28;20184;-71
2022/11/05 11:07:54;;;;;;;7.63;3.10;;;;;;;;;;5008252;28;20679;-71
2022/11/05 11:10:21;;;;;;;6.70;2.87;;;;;;;;;;5008626;28;20274;-71
2022/11/05 11:12:48;;;;;;;6.90;3.03;;;;;;;;;;5009645;28;20195;-70
2022/11/05 11:15:26;;;;;;;6.63;2.73;;;;;;;;;;5008755;28;20181;-71
2022/11/05 11:17:53;;;;;;;5.70;2.90;;;;;;;;;;5009759;28;20207;-71
2022/11/05 11:20:22;;;;;;;4.80;2.20;;;;;;;;;;5009497;28;20241;-71
2022/11/05 11:22:57;;;;;;;2.90;1.40;;;;;;;;;;5008785;28;20200;-71
2022/11/05 11:25:24;;;;;;;3.90;1.70;;;;;;;;;;5008358;28;20187;-71
2022/11/05 11:27:51;;;;;;;3.47;1.50;;;;;;;;;;5008763;28;20615;-70
2022/11/05 11:30:18;;;;;;;4.77;1.50;;;;;;;;;;4992370;28;20188;-71
2022/11/05 11:32:45;;;;;;;3.30;1.60;;;;;;;;;;5008783;28;20184;-71
2022/11/05 11:35:19;;;;;;;6.47;1.63;;;;;;;;;;5008758;28;20192;-70
2022/11/05 11:37:46;;;;;;;2.97;1.50;;;;;;;;;;5008441;28;20187;-71
2022/11/05 11:40:14;;;;;;;6.10;2.10;;;;;;;;;;5009765;28;20199;-71
2022/11/05 11:42:44;;;;;;;5.30;2.40;;;;;;;;;;5010138;28;20207;-71
2022/11/05 11:45:18;;;;;;;8.03;3.10;;;;;;;;;;5013641;28;20192;-72
2022/11/05 11:47:45;;;;;;;8.17;4.50;;;;;;;;;;5012478;28;20203;-71
2022/11/05 11:50:31;;;;;;;11.30;5.50;;;;;;;;;;5022577;28;20220;-71
2022/11/05 11:53:20;;;;;;;9.73;5.20;;;;;;;;;;5013287;28;20215;-71
2022/11/05 11:55:56;;;;;;;9.00;4.90;;;;;;;;;;5010307;28;20212;-71
2022/11/05 11:58:24;;;;;;;8.70;4.50;;;;;;;;;;5013004;28;20220;-71
2022/11/05 12:00:54;;;;;;;8.23;3.77;;;;;;;;;;5012046;28;20200;-71
2022/11/05 12:03:28;;;;;;;9.23;3.70;;;;;;;;;;5012034;28;20192;-71
2022/11/05 12:06:04;;;;;;;7.90;4.17;;;;;;;;;;5012149;28;20235;-71
2022/11/05 12:08:30;;;;;;;10.93;3.90;;;;;;;;;;5011821;28;20187;-72
2022/11/05 12:11:06;;;;;;;6.37;2.70;;;;;;;;;;5012196;28;20671;-71
2022/11/05 12:13:42;;;;;;;7.37;2.80;;;;;;;;;;5011775;28;20563;-71
2022/11/05 12:16:14;;;;;;;7.03;2.43;;;;;;;;;;5013081;28;20184;-71
2022/11/05 12:18:47;;;;;;;6.73;2.60;;;;;;;;;;5013897;28;20302;-71
2022/11/05 12:21:22;;;;;;;6.10;2.20;;;;;;;;;;5032721;28;20237;-71
2022/11/05 12:24:09;;;;;;;5.33;2.10;;;;;;;;;;5031615;28;20195;-71
2022/11/05 12:26:56;;;;;;;7.10;2.07;;;;;;;;;;5017471;28;20598;-71
2022/11/05 12:29:28;;;;;;;5.63;1.80;;;;;;;;;;5012967;28;20235;-71
2022/11/05 12:32:13;;;;;;;7.70;2.80;;;;;;;;;;5012877;28;20902;-71
2022/11/05 12:34:40;;;;;;;6.10;2.20;;;;;;;;;;5012991;28;20664;-71
2022/11/05 12:37:43;;;;;;;6.70;1.80;;;;;;;;;;5012043;28;20183;-71
2022/11/05 12:40:16;;;;;;;5.97;1.70;;;;;;;;;;5012593;28;20233;-71
2022/11/05 12:42:51;;;;;;;6.13;2.07;;;;;;;;;;5031992;28;20799;-71
2022/11/05 12:45:18;;;;;;;6.90;2.20;;;;;;;;;;5027106;28;20235;-71
2022/11/05 12:48:11;;;;;;;6.40;2.30;;;;;;;;;;5012716;28;20227;-71
2022/11/05 12:50:44;;;;;;;11.13;1.97;;;;;;;;;;5027003;28;20232;-71
2022/11/05 12:53:30;;;;;;;8.83;2.33;;;;;;;;;;5012410;28;20560;-71
2022/11/05 12:55:57;;;;;;;9.77;2.97;;;;;;;;;;5011155;28;20196;-71
2022/11/05 12:58:25;;;;;;;8.60;2.83;;;;;;;;;;5010903;28;20268;-71
2022/11/05 13:01:03;;;;;;;8.53;3.57;;;;;;;;;;5011027;28;20197;-71
2022/11/05 13:03:36;;;;;;;11.17;2.40;;;;;;;;;;5011011;28;20192;-71
2022/11/05 13:06:04;;;;;;;8.57;2.40;;;;;;;;;;5011875;28;20721;-71
2022/11/05 13:08:36;;;;;;;6.10;1.83;;;;;;;;;;5016976;28;20196;-71
2022/11/05 13:11:11;;;;;;;10.37;2.37;;;;;;;;;;5010618;28;20199;-71
2022/11/05 13:13:44;;;;;;;8.10;2.57;;;;;;;;;;5011054;28;20202;-71
2022/11/05 13:16:12;;;;;;;7.80;2.57;;;;;;;;;;5010745;28;20210;-71
2022/11/05 13:18:41;;;;;;;10.77;2.50;;;;;;;;;;4994643;28;20189;-71
2022/11/05 13:21:08;;;;;;;7.07;1.43;;;;;;;;;;4994467;28;20599;-71
2022/11/05 13:23:58;;;;;;;7.57;1.90;;;;;;;;;;5010956;28;20208;-71
2022/11/05 13:26:25;;;;;;;13.20;2.50;;;;;;;;;;5008709;28;20279;-71
2022/11/05 13:28:56;;;;;;;9.60;3.30;;;;;;;;;;5011737;28;20247;-71
2022/11/05 13:31:30;;;;;;;8.33;2.90;;;;;;;;;;5010429;28;20206;-71
2022/11/05 13:33:57;;;;;;;8.90;3.00;;;;;;;;;;5010693;28;20708;-71
2022/11/05 13:39:15;;;;;;;8.90;2.57;;;;;;;;;;5010044;28;20594;-71
2022/11/05 13:42:00;;;;;;;14.03;2.77;;;;;;;;;;5017954;28;20187;-71
2022/11/05 13:44:45;;;;;;;9.83;2.57;;;;;;;;;;5029836;28;20286;-71
2022/11/05 13:47:31;;;;;;;13.27;3.03;;;;;;;;;;5031306;28;20760;-71
2022/11/05 13:49:58;;;;;;;7.87;2.20;;;;;;;;;;5018648;28;20405;-71
2022/11/05 13:52:32;;;;;;;12.07;2.30;;;;;;;;;;5011094;28;20543;-71
2022/11/05 13:55:02;;;;;;;15.20;3.73;;;;;;;;;;5009257;28;20199;-69
2022/11/05 13:57:38;;;;;;;7.63;2.23;;;;;;;;;;5010216;28;20196;-72
2022/11/05 14:00:14;;;;;;;6.77;2.57;;;;;;;;;;5022561;28;20191;-71
2022/11/05 14:02:42;;;;;;;14.07;3.97;;;;;;;;;;5017519;28;20769;-71
2022/11/05 14:05:28;;;;;;;9.53;3.43;;;;;;;;;;5024972;28;20734;-70
2022/11/05 14:07:55;;;;;;;12.80;3.40;;;;;;;;;;5007984;28;20317;-71
2022/11/05 14:10:43;;;;;;;10.00;4.07;;;;;;;;;;5009907;28;20196;-70
2022/11/05 14:13:22;;;;;;;10.83;4.53;;;;;;;;;;5009752;28;20342;-70
2022/11/05 14:15:58;;;;;;;10.20;5.13;;;;;;;;;;5018635;28;20270;-70
2022/11/05 14:18:41;;;;;;;13.20;4.70;;;;;;;;;;5019566;28;20195;-71
2022/11/05 14:21:36;;;;;;;9.33;3.37;;;;;;;;;;5028677;28;20188;-71
2022/11/05 14:24:23;;;;;;;9.10;3.37;;;;;;;;;;5008586;28;20212;-70
2022/11/05 14:27:09;;;;;;;10.27;2.70;;;;;;;;;;5008424;28;20295;-69
2022/11/05 14:30:03;;;;;;;9.90;3.10;;;;;;;;;;5015105;28;21239;-69
2022/11/05 14:32:44;;;;;;;11.70;3.47;;;;;;;;;;5026451;28;20186;-69
2022/11/05 14:35:16;;;;;;;11.07;3.77;;;;;;;;;;5016333;28;20270;-70
2022/11/05 14:37:53;;;;;;;12.43;3.63;;;;;;;;;;5017104;28;20196;-71
2022/11/05 14:40:29;;;;;;;8.53;3.47;;;;;;;;;;5021158;28;20209;-70
2022/11/05 14:43:06;;;;;;;10.53;3.83;;;;;;;;;;5008928;28;20736;-70
2022/11/05 14:45:38;;;;;;;12.33;5.07;;;;;;;;;;5013398;28;20569;-70
2022/11/05 14:48:06;;;;;;;12.43;5.73;;;;;;;;;;5021664;28;20211;-70
2022/11/05 14:50:37;;;;;;;12.43;7.83;;;;;;;;;;5026764;28;20227;-70
2022/11/05 14:53:09;;;;;;;18.20;8.47;;;;;;;;;;5029167;28;20200;-70
2022/11/05 14:55:37;;;;;;;18.23;8.27;;;;;;;;;;5028201;28;20253;-70
2022/11/05 14:58:05;;;;;;;15.50;8.07;;;;;;;;;;5011571;28;20234;-70
2022/11/05 15:00:35;;;;;;;13.73;6.83;;;;;;;;;;5022772;28;20217;-70
2022/11/05 15:03:03;;;;;;;12.90;6.60;;;;;;;;;;5024281;28;20734;-70
2022/11/05 15:05:30;;;;;;;12.17;6.43;;;;;;;;;;5029424;28;20188;-70
2022/11/05 15:07:57;;;;;;;10.83;4.13;;;;;;;;;;5023951;28;20247;-70
2022/11/05 15:10:30;;;;;;;11.67;4.90;;;;;;;;;;5018049;28;20314;-70
2022/11/05 15:13:03;;;;;;;8.70;3.83;;;;;;;;;;5028411;28;20187;-70
2022/11/05 15:15:30;;;;;;;12.43;4.03;;;;;;;;;;5020135;28;20603;-69
2022/11/05 15:18:03;;;;;;;12.50;4.73;;;;;;;;;;5025785;28;20231;-70
2022/11/05 15:20:35;;;;;;;12.70;5.70;;;;;;;;;;5016862;28;20267;-70
2022/11/05 15:23:07;;;;;;;12.50;6.27;;;;;;;;;;5025579;28;20195;-69
2022/11/05 15:25:49;;;;;;;15.70;5.60;;;;;;;;;;5025723;28;20545;-70
2022/11/05 15:28:25;;;;;;;11.30;4.20;;;;;;;;;;5011553;28;20298;-68
2022/11/05 15:31:00;;;;;;;13.40;4.87;;;;;;;;;;5011019;28;20199;-72
2022/11/05 15:33:27;;;;;;;12.90;4.67;;;;;;;;;;5010166;28;20258;-71
2022/11/05 15:35:53;;;;;;;14.70;5.30;;;;;;;;;;5013152;28;20209;-71
2022/11/05 15:38:23;;;;;;;11.90;5.07;;;;;;;;;;5005695;28;20555;-71